createdAt,value
2022-11-27T00:00:01.741Z,6.80
2022-11-27T00:01:12.391Z,6.80
2022-11-27T00:02:17.018Z,6.80
2022-11-27T00:03:20.998Z,6.80
2022-11-27T00:04:24.249Z,6.80
2022-11-27T00:05:28.107Z,6.80
2022-11-27T00:06:32.088Z,6.80
2022-11-27T00:07:39.284Z,6.80
2022-11-27T00:10:10.319Z,6.80
2022-11-27T00:11:24.107Z,6.70
2022-11-27T00:12:26.911Z,6.70
2022-11-27T00:13:31.893Z,6.70
2022-11-27T00:14:36.942Z,6.70
2022-11-27T00:15:44.019Z,6.70
2022-11-27T00:16:48.127Z,6.70
2022-11-27T00:17:50.858Z,6.70
2022-11-27T00:18:57.386Z,6.70
2022-11-27T00:20:03.928Z,6.70
2022-11-27T00:21:11.887Z,6.70
2022-11-27T00:22:16.157Z,6.70
2022-11-27T00:23:30.014Z,6.70
2022-11-27T00:24:33.844Z,6.70
2022-11-27T00:25:55.687Z,6.70
2022-11-27T00:27:01.581Z,6.70
2022-11-27T00:28:05.213Z,6.70
2022-11-27T00:29:11.749Z,6.70
2022-11-27T00:30:15.464Z,6.60
2022-11-27T00:31:23.281Z,6.60
2022-11-27T00:32:26.074Z,6.70
2022-11-27T00:33:30.040Z,6.60
2022-11-27T00:34:33.977Z,6.60
2022-11-27T00:35:39.738Z,6.60
2022-11-27T00:36:48.414Z,6.60
2022-11-27T00:37:51.147Z,6.60
2022-11-27T00:38:54.851Z,6.60
2022-11-27T00:39:57.620Z,6.60
2022-11-27T00:41:06.412Z,6.60
2022-11-27T00:42:09.217Z,6.60
2022-11-27T00:43:12.777Z,6.60
2022-11-27T00:44:29.186Z,6.60
2022-11-27T00:45:36.819Z,6.60
2022-11-27T00:46:44.200Z,6.60
2022-11-27T00:48:01.140Z,6.60
2022-11-27T00:49:07.865Z,6.60
2022-11-27T00:50:11.113Z,6.60
2022-11-27T00:51:21.809Z,6.60
2022-11-27T00:52:25.431Z,6.60
2022-11-27T00:53:28.378Z,6.70
2022-11-27T00:54:31.999Z,6.70
2022-11-27T00:55:37.493Z,6.70
2022-11-27T00:56:41.606Z,6.70
2022-11-27T00:57:44.089Z,6.60
2022-11-27T00:58:53.200Z,6.70
2022-11-27T01:00:01.730Z,6.70
2022-11-27T01:01:37.240Z,6.70
2022-11-27T01:02:42.339Z,6.70
2022-11-27T01:03:46.209Z,6.70
2022-11-27T01:04:52.227Z,6.70
2022-11-27T01:05:58.356Z,6.70
2022-11-27T01:07:07.266Z,6.70
2022-11-27T01:08:09.993Z,6.70
2022-11-27T01:13:12.795Z,6.70
2022-11-27T01:14:20.653Z,6.70
2022-11-27T01:15:41.610Z,6.70
2022-11-27T01:16:51.848Z,6.70
2022-11-27T01:18:21.307Z,6.70
2022-11-27T01:19:32.138Z,6.70
2022-11-27T01:20:39.068Z,6.70
2022-11-27T01:21:43.765Z,6.70
2022-11-27T01:22:55.929Z,6.70
2022-11-27T01:24:02.299Z,6.70
2022-11-27T01:25:07.157Z,6.70
2022-11-27T01:26:46.421Z,6.70
2022-11-27T01:27:54.892Z,6.70
2022-11-27T01:29:03.482Z,6.70
2022-11-27T01:30:09.867Z,6.70
2022-11-27T01:31:19.401Z,6.70
2022-11-27T01:32:26.233Z,6.70
2022-11-27T01:33:29.387Z,6.70
2022-11-27T01:35:06.490Z,6.70
2022-11-27T01:36:15.645Z,6.70
2022-11-27T01:37:20.490Z,6.70
2022-11-27T01:38:27.382Z,6.70
2022-11-27T01:39:34.145Z,6.70
2022-11-27T01:40:43.283Z,6.70
2022-11-27T01:41:50.041Z,6.70
2022-11-27T01:42:53.460Z,6.70
2022-11-27T01:44:00.389Z,6.70
2022-11-27T01:45:30.855Z,6.70
2022-11-27T01:46:42.210Z,6.70
2022-11-27T01:47:57.055Z,6.70
2022-11-27T01:49:43.105Z,6.70
2022-11-27T01:50:47.659Z,6.70
2022-11-27T01:52:01.270Z,6.60
2022-11-27T01:53:16.921Z,6.60
2022-11-27T01:54:31.617Z,6.60
2022-11-27T01:56:06.937Z,6.60
2022-11-27T01:57:22.999Z,6.60
2022-11-27T01:58:33.378Z,6.60
2022-11-27T02:01:17.780Z,6.60
2022-11-27T02:02:24.965Z,6.60
2022-11-27T02:03:29.750Z,6.60
2022-11-27T02:04:32.877Z,6.60
2022-11-27T02:05:41.021Z,6.60
2022-11-27T02:06:50.022Z,6.60
2022-11-27T02:07:54.762Z,6.60
2022-11-27T02:08:58.197Z,6.60
2022-11-27T02:10:02.201Z,6.60
2022-11-27T02:11:19.017Z,6.50
2022-11-27T02:13:01.808Z,6.50
2022-11-27T02:14:16.647Z,6.50
2022-11-27T02:15:30.795Z,6.50
2022-11-27T02:17:10.797Z,6.50
2022-11-27T02:18:28.818Z,6.50
2022-11-27T02:20:03.441Z,6.50
2022-11-27T02:21:28.569Z,6.50
2022-11-27T02:23:28.805Z,6.50
2022-11-27T02:27:38.484Z,6.50
2022-11-27T02:29:29.486Z,6.50
2022-11-27T02:30:45.455Z,6.50
2022-11-27T02:31:58.968Z,6.50
2022-11-27T02:35:04.520Z,6.50
2022-11-27T02:36:13.831Z,6.50
2022-11-27T02:37:53.527Z,6.50
2022-11-27T02:39:06.846Z,6.50
2022-11-27T02:40:15.104Z,6.50
2022-11-27T02:41:27.228Z,6.50
2022-11-27T02:42:39.779Z,6.50
2022-11-27T02:44:19.534Z,6.50
2022-11-27T02:45:28.870Z,6.50
2022-11-27T02:46:39.357Z,6.50
2022-11-27T02:47:50.575Z,6.50
2022-11-27T02:48:59.302Z,6.50
2022-11-27T02:50:39.655Z,6.50
2022-11-27T02:51:53.924Z,6.50
2022-11-27T02:53:03.302Z,6.50
2022-11-27T02:54:38.762Z,6.50
2022-11-27T02:55:48.264Z,6.50
2022-11-27T02:56:55.805Z,6.60
2022-11-27T02:58:06.001Z,6.50
2022-11-27T02:59:13.380Z,6.50
2022-11-27T03:01:27.148Z,6.50
2022-11-27T03:16:24.688Z,6.60
2022-11-27T03:17:53.471Z,6.60
2022-11-27T03:19:07.825Z,6.60
2022-11-27T03:20:18.702Z,6.60
2022-11-27T03:21:57.289Z,6.60
2022-11-27T03:23:00.984Z,6.60
2022-11-27T03:24:10.068Z,6.60
2022-11-27T03:25:16.239Z,6.60
2022-11-27T03:26:19.544Z,6.60
2022-11-27T03:27:33.275Z,6.60
2022-11-27T03:28:40.207Z,6.60
2022-11-27T03:29:50.169Z,6.60
2022-11-27T03:30:53.044Z,6.60
2022-11-27T03:32:01.065Z,6.60
2022-11-27T03:33:05.145Z,6.60
2022-11-27T03:34:30.727Z,6.60
2022-11-27T03:35:33.746Z,6.60
2022-11-27T03:36:37.629Z,6.60
2022-11-27T03:37:42.860Z,6.60
2022-11-27T03:38:48.573Z,6.60
2022-11-27T03:39:51.645Z,6.60
2022-11-27T03:41:07.346Z,6.60
2022-11-27T03:42:21.907Z,6.60
2022-11-27T03:43:28.812Z,6.60
2022-11-27T03:44:57.357Z,6.60
2022-11-27T03:46:07.667Z,6.60
2022-11-27T03:47:26.133Z,6.60
2022-11-27T03:48:40.290Z,6.60
2022-11-27T03:50:06.824Z,6.60
2022-11-27T03:53:37.614Z,6.60
2022-11-27T03:54:53.836Z,6.60
2022-11-27T03:56:14.744Z,6.60
2022-11-27T03:57:34.005Z,6.60
2022-11-27T03:58:45.658Z,6.60
2022-11-27T03:59:52.949Z,6.60
2022-11-27T04:01:09.217Z,6.60
2022-11-27T04:02:17.332Z,6.60
2022-11-27T04:03:51.587Z,6.60
2022-11-27T04:04:59.016Z,6.60
2022-11-27T04:06:05.179Z,6.60
2022-11-27T04:07:13.353Z,6.60
2022-11-27T04:08:17.099Z,6.60
2022-11-27T04:09:22.590Z,6.60
2022-11-27T04:10:26.351Z,6.60
2022-11-27T04:11:36.304Z,6.60
2022-11-27T04:12:39.519Z,6.60
2022-11-27T04:13:52.334Z,6.60
2022-11-27T04:14:55.080Z,6.60
2022-11-27T04:16:22.176Z,6.60
2022-11-27T04:17:25.070Z,6.60
2022-11-27T04:18:36.704Z,6.60
2022-11-27T04:19:49.050Z,6.60
2022-11-27T04:20:54.410Z,6.60
2022-11-27T04:21:59.348Z,6.60
2022-11-27T04:23:05.004Z,6.60
2022-11-27T04:24:11.211Z,6.60
2022-11-27T04:25:16.041Z,6.60
2022-11-27T04:26:39.409Z,6.60
2022-11-27T04:27:42.242Z,6.60
2022-11-27T04:28:55.812Z,6.60
2022-11-27T04:30:07.283Z,6.60
2022-11-27T04:31:13.356Z,6.70
2022-11-27T04:32:18.969Z,6.60
2022-11-27T04:33:22.960Z,6.60
2022-11-27T04:34:28.269Z,6.60
2022-11-27T04:35:33.299Z,6.60
2022-11-27T04:36:39.231Z,6.60
2022-11-27T04:37:43.369Z,6.60
2022-11-27T04:38:45.949Z,6.60
2022-11-27T04:39:50.334Z,6.60
2022-11-27T04:41:04.291Z,6.60
2022-11-27T04:42:09.469Z,6.60
2022-11-27T04:43:15.984Z,6.60
2022-11-27T04:44:22.738Z,6.60
2022-11-27T04:45:33.892Z,6.60
2022-11-27T04:46:46.682Z,6.60
2022-11-27T04:48:25.009Z,6.60
2022-11-27T04:49:34.346Z,6.60
2022-11-27T04:50:40.388Z,6.60
2022-11-27T04:52:01.053Z,6.60
2022-11-27T04:53:05.385Z,6.60
2022-11-27T04:54:10.846Z,6.60
2022-11-27T04:55:16.269Z,6.50
2022-11-27T04:56:18.900Z,6.60
2022-11-27T04:57:22.955Z,6.50
2022-11-27T04:58:25.698Z,6.60
2022-11-27T04:59:29.579Z,6.60
2022-11-27T05:00:32.431Z,6.60
2022-11-27T05:01:36.504Z,6.60
2022-11-27T05:02:41.962Z,6.60
2022-11-27T05:03:51.437Z,6.60
2022-11-27T05:04:56.981Z,6.50
2022-11-27T05:06:02.769Z,6.60
2022-11-27T05:07:09.732Z,6.50
2022-11-27T05:08:13.601Z,6.50
2022-11-27T05:09:20.383Z,6.50
2022-11-27T05:10:33.580Z,6.50
2022-11-27T05:11:36.512Z,6.60
2022-11-27T05:12:49.791Z,6.50
2022-11-27T05:14:16.371Z,6.60
2022-11-27T05:15:20.256Z,6.60
2022-11-27T05:16:23.101Z,6.60
2022-11-27T05:17:26.985Z,6.60
2022-11-27T05:18:32.666Z,6.60
2022-11-27T05:19:36.418Z,6.60
2022-11-27T05:20:42.856Z,6.60
2022-11-27T05:21:48.802Z,6.60
2022-11-27T05:22:51.433Z,6.60
2022-11-27T05:23:54.969Z,6.60
2022-11-27T05:25:12.610Z,6.60
2022-11-27T05:26:16.148Z,6.60
2022-11-27T05:27:20.479Z,6.60
2022-11-27T05:28:27.216Z,6.60
2022-11-27T05:29:31.671Z,6.60
2022-11-27T05:30:34.595Z,6.60
2022-11-27T05:31:46.490Z,6.50
2022-11-27T05:32:50.474Z,6.50
2022-11-27T05:33:56.269Z,6.50
2022-11-27T05:35:00.080Z,6.50
2022-11-27T05:36:03.218Z,6.50
2022-11-27T05:37:08.854Z,6.50
2022-11-27T05:38:14.487Z,6.40
2022-11-27T05:39:18.424Z,6.40
2022-11-27T05:40:21.370Z,6.40
2022-11-27T05:41:26.289Z,6.40
2022-11-27T05:42:29.213Z,6.40
2022-11-27T05:43:32.955Z,6.40
2022-11-27T05:44:36.860Z,6.40
2022-11-27T05:45:42.680Z,6.40
2022-11-27T05:46:46.548Z,6.40
2022-11-27T05:47:51.656Z,6.30
2022-11-27T05:48:57.049Z,6.30
2022-11-27T05:50:01.985Z,6.30
2022-11-27T05:51:06.633Z,6.30
2022-11-27T05:52:10.857Z,6.30
2022-11-27T05:53:14.491Z,6.30
2022-11-27T05:54:18.116Z,6.30
2022-11-27T05:55:24.349Z,6.20
2022-11-27T05:56:35.629Z,6.20
2022-11-27T05:57:40.525Z,6.20
2022-11-27T05:58:57.047Z,6.20
2022-11-27T06:00:07.162Z,6.20
2022-11-27T06:01:11.329Z,6.20
2022-11-27T06:02:20.748Z,6.20
2022-11-27T06:03:25.876Z,6.20
2022-11-27T06:04:29.838Z,6.20
2022-11-27T06:05:32.805Z,6.20
2022-11-27T06:06:36.574Z,6.20
2022-11-27T06:07:40.923Z,6.20
2022-11-27T06:08:49.544Z,6.20
2022-11-27T06:09:52.068Z,6.20
2022-11-27T06:10:55.744Z,6.20
2022-11-27T06:11:58.339Z,6.20
2022-11-27T06:13:02.143Z,6.20
2022-11-27T06:14:07.898Z,6.20
2022-11-27T06:15:13.791Z,6.20
2022-11-27T06:16:19.041Z,6.20
2022-11-27T06:17:25.715Z,6.20
2022-11-27T06:18:31.037Z,6.20
2022-11-27T06:19:44.386Z,6.20
2022-11-27T06:20:52.991Z,6.20
2022-11-27T06:22:04.372Z,6.20
2022-11-27T06:23:11.434Z,6.20
2022-11-27T06:24:15.254Z,6.20
2022-11-27T06:25:18.399Z,6.20
2022-11-27T06:26:27.132Z,6.20
2022-11-27T06:27:34.138Z,6.20
2022-11-27T06:28:38.035Z,6.20
2022-11-27T06:29:47.098Z,6.20
2022-11-27T06:30:50.162Z,6.20
2022-11-27T06:31:54.435Z,6.20
2022-11-27T06:33:00.041Z,6.20
2022-11-27T06:34:31.908Z,6.20
2022-11-27T06:35:37.205Z,6.20
2022-11-27T06:36:46.726Z,6.20
2022-11-27T06:37:51.906Z,6.20
2022-11-27T06:38:59.964Z,6.20
2022-11-27T06:40:07.109Z,6.20
2022-11-27T06:41:13.732Z,6.20
2022-11-27T06:42:20.499Z,6.20
2022-11-27T06:43:26.214Z,6.20
2022-11-27T06:44:30.429Z,6.20
2022-11-27T06:45:36.234Z,6.20
2022-11-27T06:46:53.731Z,6.20
2022-11-27T06:48:02.324Z,6.20
2022-11-27T06:49:21.317Z,6.20
2022-11-27T06:50:24.408Z,6.20
2022-11-27T06:51:33.761Z,6.20
2022-11-27T06:52:40.395Z,6.20
2022-11-27T06:53:45.959Z,6.20
2022-11-27T06:54:52.004Z,6.20
2022-11-27T06:55:55.662Z,6.20
2022-11-27T06:57:01.373Z,6.20
2022-11-27T06:58:05.335Z,6.20
2022-11-27T06:59:09.195Z,6.20
2022-11-27T07:00:13.741Z,6.20
2022-11-27T07:01:18.790Z,6.20
2022-11-27T07:02:22.405Z,6.20
2022-11-27T07:03:25.746Z,6.20
2022-11-27T07:04:33.119Z,6.20
2022-11-27T07:05:45.191Z,6.20
2022-11-27T07:06:49.009Z,6.20
2022-11-27T07:08:01.734Z,6.20
2022-11-27T07:09:11.316Z,6.20
2022-11-27T07:10:15.555Z,6.20
2022-11-27T07:11:26.165Z,6.20
2022-11-27T07:12:32.782Z,6.20
2022-11-27T07:13:35.907Z,6.20
2022-11-27T07:14:40.188Z,6.20
2022-11-27T07:15:43.316Z,6.20
2022-11-27T07:16:51.732Z,6.20
2022-11-27T07:17:54.684Z,6.20
2022-11-27T07:19:03.303Z,6.20
2022-11-27T07:20:08.543Z,6.20
2022-11-27T07:21:12.472Z,6.20
2022-11-27T07:22:19.533Z,6.20
2022-11-27T07:23:22.291Z,6.20
2022-11-27T07:24:29.278Z,6.20
2022-11-27T07:25:33.254Z,6.20
2022-11-27T07:26:51.420Z,6.20
2022-11-27T07:27:56.344Z,6.20
2022-11-27T07:54:36.304Z,6.20
2022-11-27T07:55:40.626Z,6.20
2022-11-27T07:56:44.726Z,6.30
2022-11-27T07:57:47.288Z,6.20
2022-11-27T07:58:57.745Z,6.20
2022-11-27T08:00:08.221Z,6.20
2022-11-27T08:01:14.476Z,6.30
2022-11-27T08:02:34.147Z,6.30
2022-11-27T08:03:38.410Z,6.30
2022-11-27T08:04:44.449Z,6.30
2022-11-27T08:05:48.211Z,6.30
2022-11-27T08:06:50.854Z,6.30
2022-11-27T08:07:54.570Z,6.30
2022-11-27T08:08:57.529Z,6.30
2022-11-27T08:10:03.702Z,6.30
2022-11-27T08:11:14.438Z,6.30
2022-11-27T08:12:17.963Z,6.30
2022-11-27T08:13:22.595Z,6.30
2022-11-27T08:14:26.438Z,6.30
2022-11-27T08:15:29.580Z,6.30
2022-11-27T08:16:34.257Z,6.40
2022-11-27T08:17:43.721Z,6.30
2022-11-27T08:18:46.414Z,6.30
2022-11-27T08:19:50.132Z,6.30
2022-11-27T08:20:52.770Z,6.30
2022-11-27T08:21:58.945Z,6.40
2022-11-27T08:23:03.155Z,6.40
2022-11-27T08:24:10.132Z,6.40
2022-11-27T08:25:20.979Z,6.40
2022-11-27T08:26:27.888Z,6.40
2022-11-27T08:27:38.918Z,6.40
2022-11-27T08:28:43.199Z,6.40
2022-11-27T08:29:46.212Z,6.40
2022-11-27T08:30:59.707Z,6.40
2022-11-27T08:32:02.557Z,6.40
2022-11-27T08:33:10.568Z,6.40
2022-11-27T08:34:14.446Z,6.40
2022-11-27T08:35:17.772Z,6.50
2022-11-27T08:36:22.660Z,6.50
2022-11-27T08:37:26.343Z,6.50
2022-11-27T08:38:31.127Z,6.50
2022-11-27T08:39:37.327Z,6.50
2022-11-27T08:40:42.253Z,6.50
2022-11-27T08:42:45.680Z,6.50
2022-11-27T08:43:57.113Z,6.50
2022-11-27T08:45:21.867Z,6.50
2022-11-27T08:48:48.044Z,6.50
2022-11-27T08:49:58.131Z,6.50
2022-11-27T08:51:08.255Z,6.50
2022-11-27T08:52:22.012Z,6.50
2022-11-27T08:53:24.951Z,6.50
2022-11-27T08:54:53.226Z,6.50
2022-11-27T08:56:08.462Z,6.60
2022-11-27T08:57:12.311Z,6.60
2022-11-27T08:58:18.962Z,6.60
2022-11-27T08:59:28.166Z,6.60
2022-11-27T09:00:31.877Z,6.60
2022-11-27T09:01:41.193Z,6.60
2022-11-27T09:02:44.094Z,6.60
2022-11-27T09:03:53.170Z,6.60
2022-11-27T09:05:29.234Z,6.60
2022-11-27T09:06:36.826Z,6.60
2022-11-27T09:07:43.886Z,6.60
2022-11-27T09:08:52.580Z,6.60
2022-11-27T09:10:01.201Z,6.60
2022-11-27T09:11:10.680Z,6.60
2022-11-27T09:12:13.848Z,6.60
2022-11-27T09:13:19.733Z,6.60
2022-11-27T09:14:24.068Z,6.60
2022-11-27T09:15:33.627Z,6.60
2022-11-27T09:16:42.983Z,6.60
2022-11-27T09:17:58.024Z,6.60
2022-11-27T09:19:06.291Z,6.60
2022-11-27T09:20:10.537Z,6.60
2022-11-27T09:21:18.189Z,6.60
2022-11-27T09:22:22.312Z,6.60
2022-11-27T09:23:25.526Z,6.60
2022-11-27T09:24:31.986Z,6.60
2022-11-27T09:25:35.302Z,6.70
2022-11-27T09:26:44.847Z,6.70
2022-11-27T09:27:48.747Z,6.70
2022-11-27T09:28:55.945Z,6.70
2022-11-27T09:30:02.526Z,6.70
2022-11-27T09:31:09.030Z,6.70
2022-11-27T09:32:26.405Z,6.70
2022-11-27T09:33:31.780Z,6.70
2022-11-27T09:34:52.711Z,6.70
2022-11-27T09:35:55.641Z,6.70
2022-11-27T09:36:59.448Z,6.70
2022-11-27T09:38:02.572Z,6.70
2022-11-27T09:39:06.632Z,6.80
2022-11-27T09:40:18.910Z,6.80
2022-11-27T09:41:47.929Z,6.80
2022-11-27T09:43:12.823Z,6.80
2022-11-27T09:44:33.985Z,6.80
2022-11-27T09:45:46.154Z,6.80
2022-11-27T09:46:56.770Z,6.80
2022-11-27T09:48:07.858Z,6.80
2022-11-27T09:49:27.278Z,6.80
2022-11-27T09:50:36.869Z,6.80
2022-11-27T09:51:45.534Z,6.90
2022-11-27T09:52:57.099Z,6.80
2022-11-27T09:54:08.927Z,6.90
2022-11-27T09:55:26.193Z,6.90
2022-11-27T09:56:35.804Z,6.90
2022-11-27T09:57:42.762Z,6.90
2022-11-27T09:58:56.557Z,6.90
2022-11-27T10:00:13.009Z,6.90
2022-11-27T10:01:32.296Z,6.90
2022-11-27T10:02:44.213Z,6.90
2022-11-27T10:03:59.652Z,6.90
2022-11-27T10:05:18.263Z,6.80
2022-11-27T10:06:29.863Z,6.90
2022-11-27T10:07:54.437Z,6.90
2022-11-27T10:09:19.390Z,6.90
2022-11-27T10:10:42.501Z,6.90
2022-11-27T10:11:58.379Z,6.90
2022-11-27T10:13:11.477Z,6.90
2022-11-27T10:14:47.384Z,6.90
2022-11-27T10:16:00.325Z,6.90
2022-11-27T10:17:15.657Z,6.90
2022-11-27T10:18:40.243Z,6.90
2022-11-27T10:20:05.480Z,6.90
2022-11-27T10:21:17.400Z,6.90
2022-11-27T10:22:33.267Z,6.90
2022-11-27T10:23:47.054Z,6.90
2022-11-27T10:25:13.112Z,7.00
2022-11-27T10:26:22.151Z,7.00
2022-11-27T10:27:31.756Z,7.00
2022-11-27T10:28:48.362Z,7.00
2022-11-27T10:29:57.707Z,7.00
2022-11-27T10:31:22.185Z,7.00
2022-11-27T10:34:06.224Z,7.00
2022-11-27T10:35:27.751Z,7.00
2022-11-27T10:36:38.589Z,7.10
2022-11-27T10:38:16.713Z,7.10
2022-11-27T10:39:37.470Z,7.10
2022-11-27T10:40:49.554Z,7.10
2022-11-27T10:42:00.952Z,7.10
2022-11-27T10:43:13.620Z,7.10
2022-11-27T10:44:33.935Z,7.10
2022-11-27T10:45:53.779Z,7.10
2022-11-27T10:47:05.444Z,7.10
2022-11-27T10:48:08.311Z,7.10
2022-11-27T10:49:12.627Z,7.10
2022-11-27T10:50:17.050Z,7.20
2022-11-27T10:51:27.861Z,7.20
2022-11-27T10:52:31.822Z,7.20
2022-11-27T10:53:45.575Z,7.20
2022-11-27T10:54:56.138Z,7.20
2022-11-27T10:56:38.945Z,7.20
2022-11-27T10:57:58.914Z,7.20
2022-11-27T10:59:05.676Z,7.20
2022-11-27T11:00:21.859Z,7.20
2022-11-27T11:01:30.751Z,7.30
2022-11-27T11:03:03.956Z,7.30
2022-11-27T11:04:31.653Z,7.30
2022-11-27T11:06:04.809Z,7.30
2022-11-27T11:07:09.331Z,7.30
2022-11-27T11:08:22.697Z,7.40
2022-11-27T11:09:29.641Z,7.40
2022-11-27T11:10:46.435Z,7.40
2022-11-27T11:12:29.938Z,7.40
2022-11-27T11:13:52.166Z,7.40
2022-11-27T11:15:16.111Z,7.40
2022-11-27T11:16:33.284Z,7.40
2022-11-27T11:17:43.188Z,7.50
2022-11-27T11:18:51.250Z,7.50
2022-11-27T11:20:29.289Z,7.50
2022-11-27T11:22:25.107Z,7.50
2022-11-27T11:23:54.441Z,7.50
2022-11-27T11:25:31.462Z,7.50
2022-11-27T11:26:54.889Z,7.60
2022-11-27T11:28:01.512Z,7.60
2022-11-27T11:35:16.931Z,7.60
2022-11-27T11:36:59.598Z,7.70
2022-11-27T11:38:47.375Z,7.70
2022-11-27T11:41:41.682Z,7.80
2022-11-27T11:42:59.946Z,7.80
2022-11-27T11:44:03.510Z,7.80
2022-11-27T11:45:23.342Z,7.80
2022-11-27T11:46:52.866Z,7.80
2022-11-27T11:48:00.193Z,7.80
2022-11-27T11:49:17.389Z,7.80
2022-11-27T11:50:48.850Z,7.80
2022-11-27T11:52:40.761Z,7.80
2022-11-27T11:54:12.367Z,7.80
2022-11-27T11:55:29.695Z,7.80
2022-11-27T11:57:21.621Z,7.80
2022-11-27T11:59:12.444Z,7.90
2022-11-27T12:00:32.354Z,7.90
2022-11-27T12:02:22.212Z,7.90
2022-11-27T12:03:44.583Z,7.90
2022-11-27T12:05:28.154Z,7.90
2022-11-27T12:06:53.850Z,7.90
2022-11-27T12:08:23.959Z,7.90
2022-11-27T12:09:51.193Z,7.90
2022-11-27T12:11:09.113Z,7.90
2022-11-27T12:12:34.755Z,7.90
2022-11-27T12:14:01.338Z,7.90
2022-11-27T12:15:21.225Z,7.90
2022-11-27T12:16:46.233Z,7.90
2022-11-27T12:18:11.225Z,7.90
2022-11-27T12:19:49.301Z,7.90
2022-11-27T12:21:19.741Z,7.90
2022-11-27T12:23:36.768Z,7.90
2022-11-27T12:24:52.920Z,8.00
2022-11-27T12:26:16.936Z,8.00
2022-11-27T12:27:52.560Z,8.00
2022-11-27T12:29:46.028Z,8.00
2022-11-27T12:31:03.096Z,8.00
2022-11-27T12:32:42.385Z,8.00
2022-11-27T12:34:05.896Z,8.00
2022-11-27T12:35:33.070Z,8.00
2022-11-27T12:37:14.125Z,8.00
2022-11-27T12:38:50.521Z,8.00
2022-11-27T12:40:12.897Z,8.10
2022-11-27T12:42:07.196Z,8.10
2022-11-27T12:43:35.170Z,8.10
2022-11-27T12:45:09.429Z,8.10
2022-11-27T12:46:20.267Z,8.10
2022-11-27T12:47:40.086Z,8.10
2022-11-27T12:48:53.513Z,8.10
2022-11-27T12:50:09.473Z,8.10
2022-11-27T12:51:49.613Z,8.10
2022-11-27T12:53:06.343Z,8.10
2022-11-27T12:54:20.083Z,8.10
2022-11-27T12:56:10.456Z,8.10
2022-11-27T12:57:24.255Z,8.20
2022-11-27T12:58:41.706Z,8.10
2022-11-27T13:00:14.985Z,8.20
2022-11-27T13:01:27.664Z,8.20
2022-11-27T13:02:39.555Z,8.20
2022-11-27T13:04:07.562Z,8.20
2022-11-27T13:05:17.641Z,8.20
2022-11-27T13:06:47.676Z,8.20
2022-11-27T13:08:34.779Z,8.20
2022-11-27T13:13:11.331Z,8.20
2022-11-27T13:14:55.319Z,8.20
2022-11-27T13:16:09.912Z,8.20
2022-11-27T13:17:42.063Z,8.20
2022-11-27T13:19:05.881Z,8.20
2022-11-27T13:20:20.826Z,8.10
2022-11-27T13:21:29.077Z,8.20
2022-11-27T13:23:01.852Z,8.10
2022-11-27T13:24:07.565Z,8.10
2022-11-27T13:25:24.693Z,8.10
2022-11-27T13:26:37.867Z,8.10
2022-11-27T13:27:46.448Z,8.10
2022-11-27T13:29:26.614Z,8.10
2022-11-27T13:30:34.579Z,8.10
2022-11-27T13:31:40.290Z,8.00
2022-11-27T13:32:50.639Z,8.00
2022-11-27T13:34:01.067Z,8.00
2022-11-27T13:35:12.816Z,8.00
2022-11-27T13:36:58.255Z,8.00
2022-11-27T13:38:11.129Z,8.00
2022-11-27T13:39:59.658Z,8.00
2022-11-27T13:41:06.228Z,8.00
2022-11-27T13:42:22.414Z,8.00
2022-11-27T13:44:11.554Z,8.00
2022-11-27T13:45:24.516Z,8.00
2022-11-27T13:46:46.360Z,8.00
2022-11-27T13:48:28.551Z,7.90
2022-11-27T13:49:36.302Z,7.90
2022-11-27T13:50:45.619Z,8.00
2022-11-27T13:51:52.214Z,7.90
2022-11-27T13:53:00.686Z,7.90
2022-11-27T13:54:32.869Z,7.90
2022-11-27T13:55:57.109Z,7.90
2022-11-27T13:57:19.849Z,7.90
2022-11-27T13:58:47.210Z,7.90
2022-11-27T13:59:59.102Z,7.90
2022-11-27T14:01:22.704Z,7.90
2022-11-27T14:02:53.645Z,7.90
2022-11-27T14:04:10.288Z,7.90
2022-11-27T14:05:15.715Z,7.90
2022-11-27T14:06:25.240Z,7.90
2022-11-27T14:07:41.331Z,7.90
2022-11-27T14:09:15.752Z,7.90
2022-11-27T14:10:23.077Z,7.90
2022-11-27T14:11:37.101Z,7.90
2022-11-27T14:12:43.207Z,7.90
2022-11-27T14:13:51.709Z,7.90
2022-11-27T14:15:31.992Z,7.90
2022-11-27T14:16:37.232Z,7.90
2022-11-27T14:17:44.602Z,7.90
2022-11-27T14:18:52.647Z,7.90
2022-11-27T14:20:09.853Z,7.90
2022-11-27T14:21:47.488Z,7.90
2022-11-27T14:23:13.172Z,7.90
2022-11-27T14:24:41.075Z,7.90
2022-11-27T14:25:48.041Z,7.90
2022-11-27T14:26:55.408Z,7.80
2022-11-27T14:28:23.725Z,7.80
2022-11-27T14:29:30.854Z,7.80
2022-11-27T14:30:41.185Z,7.80
2022-11-27T14:31:45.381Z,7.80
2022-11-27T14:32:49.386Z,7.80
2022-11-27T14:34:15.521Z,7.80
2022-11-27T14:35:22.999Z,7.80
2022-11-27T14:36:30.267Z,7.80
2022-11-27T14:37:32.980Z,7.80
2022-11-27T14:38:36.970Z,7.80
2022-11-27T14:39:40.376Z,7.80
2022-11-27T14:40:44.415Z,7.80
2022-11-27T14:41:58.356Z,7.80
2022-11-27T14:43:19.251Z,7.80
2022-11-27T14:44:26.669Z,7.80
2022-11-27T14:45:31.161Z,7.80
2022-11-27T14:47:03.535Z,7.80
2022-11-27T14:48:08.136Z,7.70
2022-11-27T14:49:21.695Z,7.70
2022-11-27T14:50:25.445Z,7.70
2022-11-27T14:51:32.785Z,7.70
2022-11-27T14:52:36.033Z,7.70
2022-11-27T14:54:02.589Z,7.70
2022-11-27T14:55:14.057Z,7.70
2022-11-27T14:56:21.952Z,7.70
2022-11-27T14:57:27.398Z,7.70
2022-11-27T14:58:33.083Z,7.70
2022-11-27T14:59:35.777Z,7.70
2022-11-27T15:00:41.940Z,7.70
2022-11-27T15:02:03.113Z,7.70
2022-11-27T15:03:13.494Z,7.70
2022-11-27T15:04:31.005Z,7.70
2022-11-27T15:05:49.209Z,7.70
2022-11-27T15:06:59.072Z,7.70
2022-11-27T15:08:04.419Z,7.60
2022-11-27T15:09:31.447Z,7.60
2022-11-27T15:10:38.961Z,7.60
2022-11-27T15:11:57.026Z,7.60
2022-11-27T15:13:06.122Z,7.60
2022-11-27T15:14:19.214Z,7.60
2022-11-27T15:15:28.768Z,7.60
2022-11-27T15:16:34.161Z,7.60
2022-11-27T15:17:40.079Z,7.60
2022-11-27T15:18:49.807Z,7.60
2022-11-27T15:20:25.932Z,7.60
2022-11-27T15:21:36.135Z,7.60
2022-11-27T15:22:39.605Z,7.60
2022-11-27T15:23:49.659Z,7.60
2022-11-27T15:25:05.655Z,7.60
2022-11-27T15:26:41.085Z,7.60
2022-11-27T15:27:47.535Z,7.60
2022-11-27T15:29:03.219Z,7.60
2022-11-27T15:30:19.780Z,7.60
2022-11-27T15:31:34.471Z,7.60
2022-11-27T15:32:52.926Z,7.50
2022-11-27T15:33:58.841Z,7.50
2022-11-27T15:35:16.383Z,7.60
2022-11-27T15:36:22.532Z,7.60
2022-11-27T15:37:37.712Z,7.50
2022-11-27T15:38:42.310Z,7.60
2022-11-27T15:39:51.773Z,7.60
2022-11-27T15:41:02.158Z,7.50
2022-11-27T15:42:11.796Z,7.50
2022-11-27T15:43:17.772Z,7.50
2022-11-27T15:44:22.074Z,7.60
2022-11-27T15:45:34.308Z,7.50
2022-11-27T15:46:41.392Z,7.50
2022-11-27T15:47:44.192Z,7.50
2022-11-27T15:48:50.068Z,7.50
2022-11-27T15:49:54.519Z,7.60
2022-11-27T15:51:00.846Z,7.60
2022-11-27T15:52:05.023Z,7.60
2022-11-27T15:53:09.304Z,7.60
2022-11-27T15:54:12.430Z,7.60
2022-11-27T15:55:19.765Z,7.60
2022-11-27T15:56:31.065Z,7.60
2022-11-27T15:57:46.285Z,7.60
2022-11-27T15:58:53.278Z,7.60
2022-11-27T16:00:07.742Z,7.60
2022-11-27T16:01:17.347Z,7.60
2022-11-27T16:02:23.330Z,7.60
2022-11-27T16:03:26.074Z,7.60
2022-11-27T16:04:30.051Z,7.60
2022-11-27T16:05:34.111Z,7.60
2022-11-27T16:06:37.353Z,7.60
2022-11-27T16:07:41.476Z,7.60
2022-11-27T16:08:44.270Z,7.60
2022-11-27T16:09:49.269Z,7.60
2022-11-27T16:10:52.015Z,7.60
2022-11-27T16:12:00.751Z,7.60
2022-11-27T16:13:04.828Z,7.60
2022-11-27T16:14:12.019Z,7.60
2022-11-27T16:15:15.015Z,7.60
2022-11-27T16:16:20.615Z,7.60
2022-11-27T16:17:26.664Z,7.60
2022-11-27T16:18:33.894Z,7.60
2022-11-27T16:19:38.011Z,7.60
2022-11-27T16:20:55.314Z,7.60
2022-11-27T16:22:02.127Z,7.60
2022-11-27T16:23:10.167Z,7.60
2022-11-27T16:24:16.000Z,7.60
2022-11-27T16:25:19.489Z,7.60
2022-11-27T16:26:25.547Z,7.60
2022-11-27T16:27:29.548Z,7.60
2022-11-27T16:28:37.455Z,7.60
2022-11-27T16:29:42.016Z,7.60
2022-11-27T16:30:45.327Z,7.60
2022-11-27T16:31:51.102Z,7.60
2022-11-27T16:32:54.871Z,7.60
2022-11-27T16:34:01.633Z,7.60
2022-11-27T16:35:05.319Z,7.60
2022-11-27T16:36:18.063Z,7.60
2022-11-27T16:37:21.920Z,7.60
2022-11-27T16:38:26.118Z,7.60
2022-11-27T16:39:46.831Z,7.60
2022-11-27T16:40:51.570Z,7.60
2022-11-27T16:41:55.665Z,7.60
2022-11-27T16:42:59.682Z,7.60
2022-11-27T16:44:12.710Z,7.60
2022-11-27T16:45:18.154Z,7.60
2022-11-27T16:46:23.199Z,7.60
2022-11-27T16:47:33.475Z,7.60
2022-11-27T16:48:40.108Z,7.50
2022-11-27T16:49:44.405Z,7.50
2022-11-27T16:50:47.261Z,7.50
2022-11-27T16:51:57.341Z,7.50
2022-11-27T16:53:01.345Z,7.50
2022-11-27T16:54:07.829Z,7.50
2022-11-27T16:55:11.623Z,7.50
2022-11-27T16:56:19.618Z,7.50
2022-11-27T16:57:44.094Z,7.50
2022-11-27T16:59:02.789Z,7.50
2022-11-27T17:00:19.505Z,7.50
2022-11-27T17:01:27.081Z,7.50
2022-11-27T17:02:35.463Z,7.50
2022-11-27T17:03:48.665Z,7.50
2022-11-27T17:04:53.457Z,7.50
2022-11-27T17:05:59.092Z,7.50
2022-11-27T17:07:11.167Z,7.50
2022-11-27T17:08:17.641Z,7.50
2022-11-27T17:09:24.978Z,7.50
2022-11-27T17:10:28.910Z,7.50